sensor_id;sensor_type;location;lat;lon;timestamp;pressure;altitude;pressure_sealevel;temperature;humidity
60719;BME280;46567;51.660;5.824;2023-02-19T00:03:03;101680.0;;;12.2;100.0
60719;BME280;46567;51.660;5.824;2023-02-19T00:08:03;101670.0;;;12.1;100.0
60719;BME280;46567;51.660;5.824;2023-02-19T00:13:03;101680.0;;;12.1;99.5
60719;BME280;46567;51.660;5.824;2023-02-19T00:18:03;101670.0;;;12.1;99.5
60719;BME280;46567;51.660;5.824;2023-02-19T00:23:03;101670.0;;;12.0;99.0
60719;BME280;46567;51.660;5.824;2023-02-19T00:28:03;101680.0;;;12.0;99.0
60719;BME280;46567;51.660;5.824;2023-02-19T00:33:03;101680.0;;;12.0;99.5
60719;BME280;46567;51.660;5.824;2023-02-19T00:38:03;101680.0;;;11.9;99.5
60719;BME280;46567;51.660;5.824;2023-02-19T00:43:03;101680.0;;;11.9;99.5
60719;BME280;46567;51.660;5.824;2023-02-19T00:48:03;101670.0;;;11.9;99.5
60719;BME280;46567;51.660;5.824;2023-02-19T00:53:03;101680.0;;;11.8;99.0
60719;BME280;46567;51.660;5.824;2023-02-19T00:58:03;101680.0;;;11.8;99.0
60719;BME280;46567;51.660;5.824;2023-02-19T01:03:03;101690.0;;;11.8;99.0
60719;BME280;46567;51.660;5.824;2023-02-19T01:08:03;101690.0;;;11.8;99.0
60719;BME280;46567;51.660;5.824;2023-02-19T01:13:03;101690.0;;;11.8;99.0
60719;BME280;46567;51.660;5.824;2023-02-19T01:18:03;101700.0;;;11.8;98.5
60719;BME280;46567;51.660;5.824;2023-02-19T01:23:03;101690.0;;;11.8;98.5
60719;BME280;46567;51.660;5.824;2023-02-19T01:28:03;101700.0;;;11.8;98.5
60719;BME280;46567;51.660;5.824;2023-02-19T01:38:03;101710.0;;;11.7;98.0
60719;BME280;46567;51.660;5.824;2023-02-19T01:43:08;101710.0;;;11.7;98.0
60719;BME280;46567;51.660;5.824;2023-02-19T01:48:07;101720.0;;;11.7;98.0
60719;BME280;46567;51.660;5.824;2023-02-19T01:53:05;101720.0;;;11.7;97.5
60719;BME280;46567;51.660;5.824;2023-02-19T01:58:03;101730.0;;;11.7;97.5
60719;BME280;46567;51.660;5.824;2023-02-19T02:03:03;101730.0;;;11.7;97.5
60719;BME280;46567;51.660;5.824;2023-02-19T02:08:03;101710.0;;;11.7;97.0
60719;BME280;46567;51.660;5.824;2023-02-19T02:13:03;101720.0;;;11.7;97.0
60719;BME280;46567;51.660;5.824;2023-02-19T02:18:34;101710.0;;;11.7;97.0
60719;BME280;46567;51.660;5.824;2023-02-19T02:24:23;101710.0;;;11.7;96.5
60719;BME280;46567;51.660;5.824;2023-02-19T02:30:35;101710.0;;;11.7;96.5
60719;BME280;46567;51.660;5.824;2023-02-19T02:33:35;101710.0;;;11.7;96.5
60719;BME280;46567;51.660;5.824;2023-02-19T02:38:07;101710.0;;;11.7;96.0
60719;BME280;46567;51.660;5.824;2023-02-19T02:43:03;101720.0;;;11.6;96.0
60719;BME280;46567;51.660;5.824;2023-02-19T02:48:09;101720.0;;;11.6;96.0
60719;BME280;46567;51.660;5.824;2023-02-19T02:53:14;101710.0;;;11.6;96.0
60719;BME280;46567;51.660;5.824;2023-02-19T02:58:03;101730.0;;;11.6;96.0
60719;BME280;46567;51.660;5.824;2023-02-19T03:03:03;101730.0;;;11.6;96.0
60719;BME280;46567;51.660;5.824;2023-02-19T03:08:06;101740.0;;;11.5;96.5
60719;BME280;46567;51.660;5.824;2023-02-19T03:13:05;101740.0;;;11.5;96.5
60719;BME280;46567;51.660;5.824;2023-02-19T03:18:08;101730.0;;;11.4;96.5
60719;BME280;46567;51.660;5.824;2023-02-19T03:23:05;101740.0;;;11.4;96.5
60719;BME280;46567;51.660;5.824;2023-02-19T03:28:07;101750.0;;;11.4;96.5
60719;BME280;46567;51.660;5.824;2023-02-19T03:33:06;101750.0;;;11.4;97.0
60719;BME280;46567;51.660;5.824;2023-02-19T03:38:06;101750.0;;;11.3;97.0
60719;BME280;46567;51.660;5.824;2023-02-19T03:43:17;101750.0;;;11.3;97.0
60719;BME280;46567;51.660;5.824;2023-02-19T03:48:18;101760.0;;;11.3;97.0
60719;BME280;46567;51.660;5.824;2023-02-19T03:53:21;101770.0;;;11.3;97.0
60719;BME280;46567;51.660;5.824;2023-02-19T03:58:13;101770.0;;;11.3;97.0
60719;BME280;46567;51.660;5.824;2023-02-19T04:03:10;101790.0;;;11.3;96.5
60719;BME280;46567;51.660;5.824;2023-02-19T04:08:07;101780.0;;;11.3;96.5
60719;BME280;46567;51.660;5.824;2023-02-19T04:13:15;101800.0;;;11.3;96.5
60719;BME280;46567;51.660;5.824;2023-02-19T04:18:12;101800.0;;;11.3;96.5
60719;BME280;46567;51.660;5.824;2023-02-19T04:23:03;101810.0;;;11.3;96.5
60719;BME280;46567;51.660;5.824;2023-02-19T04:28:03;101820.0;;;11.3;96.5
60719;BME280;46567;51.660;5.824;2023-02-19T04:33:03;101820.0;;;11.3;96.5
60719;BME280;46567;51.660;5.824;2023-02-19T04:38:03;101820.0;;;11.2;97.0
60719;BME280;46567;51.660;5.824;2023-02-19T04:43:03;101830.0;;;11.2;97.0
60719;BME280;46567;51.660;5.824;2023-02-19T04:48:03;101840.0;;;11.2;97.0
60719;BME280;46567;51.660;5.824;2023-02-19T04:53:03;101850.0;;;11.2;97.0
60719;BME280;46567;51.660;5.824;2023-02-19T04:58:03;101860.0;;;11.2;97.0
60719;BME280;46567;51.660;5.824;2023-02-19T05:03:03;101870.0;;;11.1;97.5
60719;BME280;46567;51.660;5.824;2023-02-19T05:08:03;101870.0;;;11.1;97.5
60719;BME280;46567;51.660;5.824;2023-02-19T05:13:03;101880.0;;;11.1;98.0
60719;BME280;46567;51.660;5.824;2023-02-19T05:18:03;101880.0;;;11.1;98.0
60719;BME280;46567;51.660;5.824;2023-02-19T05:23:03;101900.0;;;11.1;98.0
60719;BME280;46567;51.660;5.824;2023-02-19T05:28:03;101890.0;;;11.0;98.0
60719;BME280;46567;51.660;5.824;2023-02-19T05:33:03;101900.0;;;11.0;98.0
60719;BME280;46567;51.660;5.824;2023-02-19T05:38:03;101900.0;;;11.0;98.0
60719;BME280;46567;51.660;5.824;2023-02-19T05:43:03;101910.0;;;11.0;98.5
60719;BME280;46567;51.660;5.824;2023-02-19T05:48:04;101910.0;;;10.9;98.5
60719;BME280;46567;51.660;5.824;2023-02-19T05:53:03;101910.0;;;10.9;98.5
60719;BME280;46567;51.660;5.824;2023-02-19T05:58:03;101910.0;;;10.9;98.5
60719;BME280;46567;51.660;5.824;2023-02-19T06:03:03;101920.0;;;10.9;98.5
60719;BME280;46567;51.660;5.824;2023-02-19T06:08:03;101920.0;;;10.9;98.5
60719;BME280;46567;51.660;5.824;2023-02-19T06:13:03;101920.0;;;10.9;98.5
60719;BME280;46567;51.660;5.824;2023-02-19T06:18:03;101930.0;;;10.9;98.5
60719;BME280;46567;51.660;5.824;2023-02-19T06:23:03;101930.0;;;10.8;98.5
60719;BME280;46567;51.660;5.824;2023-02-19T06:28:03;101940.0;;;10.8;98.5
60719;BME280;46567;51.660;5.824;2023-02-19T06:33:03;101940.0;;;10.8;99.0
60719;BME280;46567;51.660;5.824;2023-02-19T06:38:03;101960.0;;;10.8;99.0
60719;BME280;46567;51.660;5.824;2023-02-19T06:43:03;101970.0;;;10.8;99.0
60719;BME280;46567;51.660;5.824;2023-02-19T06:48:03;101980.0;;;10.8;99.0
60719;BME280;46567;51.660;5.824;2023-02-19T06:53:03;101990.0;;;10.8;99.0
60719;BME280;46567;51.660;5.824;2023-02-19T06:58:03;101980.0;;;10.8;99.0
60719;BME280;46567;51.660;5.824;2023-02-19T07:03:03;101980.0;;;10.8;99.0
60719;BME280;46567;51.660;5.824;2023-02-19T07:08:03;101980.0;;;10.8;99.0
60719;BME280;46567;51.660;5.824;2023-02-19T07:13:03;102000.0;;;10.8;99.0
60719;BME280;46567;51.660;5.824;2023-02-19T07:18:03;102010.0;;;10.9;99.0
60719;BME280;46567;51.660;5.824;2023-02-19T07:23:03;102010.0;;;10.9;99.0
60719;BME280;46567;51.660;5.824;2023-02-19T07:28:03;102020.0;;;10.9;99.0
60719;BME280;46567;51.660;5.824;2023-02-19T07:38:03;102050.0;;;11.0;99.0
60719;BME280;46567;51.660;5.824;2023-02-19T07:43:03;102060.0;;;11.0;98.5
60719;BME280;46567;51.660;5.824;2023-02-19T07:48:03;102060.0;;;11.0;98.5
60719;BME280;46567;51.660;5.824;2023-02-19T07:53:03;102070.0;;;11.0;98.5
60719;BME280;46567;51.660;5.824;2023-02-19T07:58:03;102080.0;;;11.0;98.5
60719;BME280;46567;51.660;5.824;2023-02-19T08:03:03;102090.0;;;11.0;98.5
60719;BME280;46567;51.660;5.824;2023-02-19T08:08:04;102100.0;;;11.0;98.5
60719;BME280;46567;51.660;5.824;2023-02-19T08:13:03;102100.0;;;11.0;99.0
60719;BME280;46567;51.660;5.824;2023-02-19T08:18:03;102120.0;;;10.9;99.0
60719;BME280;46567;51.660;5.824;2023-02-19T08:23:03;102110.0;;;10.9;99.5
60719;BME280;46567;51.660;5.824;2023-02-19T08:28:03;102110.0;;;10.9;99.5
60719;BME280;46567;51.660;5.824;2023-02-19T08:33:05;102110.0;;;10.9;99.5
60719;BME280;46567;51.660;5.824;2023-02-19T08:38:05;102120.0;;;11.0;99.5
60719;BME280;46567;51.660;5.824;2023-02-19T08:43:04;102110.0;;;11.0;99.5
60719;BME280;46567;51.660;5.824;2023-02-19T08:48:03;102130.0;;;11.1;99.5
60719;BME280;46567;51.660;5.824;2023-02-19T08:53:04;102140.0;;;11.1;99.5
60719;BME280;46567;51.660;5.824;2023-02-19T08:58:03;102150.0;;;11.2;99.5
60719;BME280;46567;51.660;5.824;2023-02-19T09:03:03;102160.0;;;11.2;99.0
60719;BME280;46567;51.660;5.824;2023-02-19T09:08:03;102150.0;;;11.2;99.0
60719;BME280;46567;51.660;5.824;2023-02-19T09:13:03;102170.0;;;11.2;99.0
60719;BME280;46567;51.660;5.824;2023-02-19T09:18:03;102180.0;;;11.2;99.5
60719;BME280;46567;51.660;5.824;2023-02-19T09:23:03;102170.0;;;11.2;99.5
60719;BME280;46567;51.660;5.824;2023-02-19T09:28:03;102160.0;;;11.3;99.5
60719;BME280;46567;51.660;5.824;2023-02-19T09:33:04;102170.0;;;11.3;99.5
60719;BME280;46567;51.660;5.824;2023-02-19T09:38:03;102170.0;;;11.5;99.5
60719;BME280;46567;51.660;5.824;2023-02-19T09:43:05;102180.0;;;11.6;99.5
60719;BME280;46567;51.660;5.824;2023-02-19T09:48:05;102190.0;;;11.6;98.5
60719;BME280;46567;51.660;5.824;2023-02-19T09:53:14;102200.0;;;11.6;98.5
60719;BME280;46567;51.660;5.824;2023-02-19T09:58:07;102230.0;;;11.6;99.0
60719;BME280;46567;51.660;5.824;2023-02-19T10:03:04;102240.0;;;11.5;99.0
60719;BME280;46567;51.660;5.824;2023-02-19T10:08:06;102250.0;;;11.3;99.0
60719;BME280;46567;51.660;5.824;2023-02-19T10:13:12;102250.0;;;11.3;99.5
60719;BME280;46567;51.660;5.824;2023-02-19T10:18:04;102280.0;;;11.3;99.5
60719;BME280;46567;51.660;5.824;2023-02-19T10:23:06;102270.0;;;11.3;99.5
60719;BME280;46567;51.660;5.824;2023-02-19T10:28:03;102290.0;;;11.3;99.5
60719;BME280;46567;51.660;5.824;2023-02-19T10:33:07;102300.0;;;11.3;99.5
60719;BME280;46567;51.660;5.824;2023-02-19T10:38:03;102300.0;;;11.5;99.5
60719;BME280;46567;51.660;5.824;2023-02-19T10:43:03;102300.0;;;11.6;99.0
60719;BME280;46567;51.660;5.824;2023-02-19T10:48:04;102310.0;;;11.7;99.0
60719;BME280;46567;51.660;5.824;2023-02-19T10:53:03;102310.0;;;11.8;99.0
60719;BME280;46567;51.660;5.824;2023-02-19T10:58:22;102330.0;;;12.0;98.5
60719;BME280;46567;51.660;5.824;2023-02-19T11:03:22;102320.0;;;12.1;98.5
60719;BME280;46567;51.660;5.824;2023-02-19T11:08:03;102330.0;;;12.3;98.5
60719;BME280;46567;51.660;5.824;2023-02-19T11:13:05;102320.0;;;12.4;98.0
60719;BME280;46567;51.660;5.824;2023-02-19T11:18:07;102310.0;;;12.4;96.5
60719;BME280;46567;51.660;5.824;2023-02-19T11:23:16;102300.0;;;12.2;95.5
60719;BME280;46567;51.660;5.824;2023-02-19T11:28:19;102300.0;;;12.1;95.0
60719;BME280;46567;51.660;5.824;2023-02-19T11:33:23;102280.0;;;11.9;94.5
60719;BME280;46567;51.660;5.824;2023-02-19T11:38:07;102290.0;;;12.0;95.0
60719;BME280;46567;51.660;5.824;2023-02-19T11:43:41;102300.0;;;12.0;95.0
60719;BME280;46567;51.660;5.824;2023-02-19T11:49:06;102290.0;;;12.1;94.5
60719;BME280;46567;51.660;5.824;2023-02-19T11:53:47;102300.0;;;12.1;94.0
60719;BME280;46567;51.660;5.824;2023-02-19T11:58:59;102310.0;;;12.0;93.5
60719;BME280;46567;51.660;5.824;2023-02-19T12:04:03;102330.0;;;11.9;93.5
60719;BME280;46567;51.660;5.824;2023-02-19T12:10:00;102320.0;;;11.7;92.5
60719;BME280;46567;51.660;5.824;2023-02-19T12:16:19;102320.0;;;11.6;92.0
60719;BME280;46567;51.660;5.824;2023-02-19T12:21:55;102320.0;;;11.6;92.5
60719;BME280;46567;51.660;5.824;2023-02-19T12:27:53;102330.0;;;11.7;92.0
60719;BME280;46567;51.660;5.824;2023-02-19T12:34:00;102320.0;;;11.7;91.5
60719;BME280;46567;51.660;5.824;2023-02-19T12:39:38;102320.0;;;11.8;92.0
60719;BME280;46567;51.660;5.824;2023-02-19T12:43:25;102310.0;;;11.9;91.5
60719;BME280;46567;51.660;5.824;2023-02-19T12:46:13;102310.0;;;12.1;91.0
60719;BME280;46567;51.660;5.824;2023-02-19T12:50:13;102310.0;;;12.1;90.5
60719;BME280;46567;51.660;5.824;2023-02-19T12:53:07;102300.0;;;12.2;90.0
60719;BME280;46567;51.660;5.824;2023-02-19T12:58:04;102320.0;;;12.2;89.5
60719;BME280;46567;51.660;5.824;2023-02-19T13:03:21;102340.0;;;12.1;88.0
60719;BME280;46567;51.660;5.824;2023-02-19T13:08:28;102340.0;;;12.0;88.0
60719;BME280;46567;51.660;5.824;2023-02-19T13:13:09;102330.0;;;12.0;88.5
60719;BME280;46567;51.660;5.824;2023-02-19T13:18:06;102330.0;;;12.1;88.5
60719;BME280;46567;51.660;5.824;2023-02-19T13:23:07;102340.0;;;12.1;88.5
60719;BME280;46567;51.660;5.824;2023-02-19T13:28:32;102350.0;;;12.0;88.5
60719;BME280;46567;51.660;5.824;2023-02-19T13:34:49;102360.0;;;12.0;88.5
60719;BME280;46567;51.660;5.824;2023-02-19T13:38:03;102370.0;;;12.0;87.5
60719;BME280;46567;51.660;5.824;2023-02-19T13:43:05;102380.0;;;11.9;86.5
60719;BME280;46567;51.660;5.824;2023-02-19T13:48:35;102400.0;;;11.8;86.0
60719;BME280;46567;51.660;5.824;2023-02-19T13:53:56;102400.0;;;11.8;86.0
60719;BME280;46567;51.660;5.824;2023-02-19T13:58:54;102400.0;;;11.7;85.5
60719;BME280;46567;51.660;5.824;2023-02-19T14:03:27;102390.0;;;11.7;85.0
60719;BME280;46567;51.660;5.824;2023-02-19T14:08:03;102400.0;;;11.6;85.0
60719;BME280;46567;51.660;5.824;2023-02-19T14:13:06;102390.0;;;11.5;84.5
60719;BME280;46567;51.660;5.824;2023-02-19T14:18:41;102420.0;;;11.5;85.0
60719;BME280;46567;51.660;5.824;2023-02-19T14:23:24;102430.0;;;11.3;84.5
60719;BME280;46567;51.660;5.824;2023-02-19T14:28:10;102420.0;;;11.3;85.0
60719;BME280;46567;51.660;5.824;2023-02-19T14:33:08;102420.0;;;11.2;85.5
60719;BME280;46567;51.660;5.824;2023-02-19T14:38:05;102430.0;;;11.2;85.5
60719;BME280;46567;51.660;5.824;2023-02-19T14:43:05;102410.0;;;11.2;86.0
60719;BME280;46567;51.660;5.824;2023-02-19T14:48:05;102410.0;;;11.2;86.5
60719;BME280;46567;51.660;5.824;2023-02-19T14:53:07;102420.0;;;11.3;86.0
60719;BME280;46567;51.660;5.824;2023-02-19T14:58:05;102390.0;;;11.2;86.5
60719;BME280;46567;51.660;5.824;2023-02-19T15:03:04;102390.0;;;11.2;86.5
60719;BME280;46567;51.660;5.824;2023-02-19T15:08:06;102390.0;;;11.2;86.5
60719;BME280;46567;51.660;5.824;2023-02-19T15:13:06;102370.0;;;11.1;86.5
60719;BME280;46567;51.660;5.824;2023-02-19T15:18:03;102360.0;;;11.1;87.0
60719;BME280;46567;51.660;5.824;2023-02-19T15:23:04;102360.0;;;11.1;87.0
60719;BME280;46567;51.660;5.824;2023-02-19T15:28:20;102360.0;;;11.0;87.5
60719;BME280;46567;51.660;5.824;2023-02-19T15:33:15;102360.0;;;11.0;87.5
60719;BME280;46567;51.660;5.824;2023-02-19T15:38:03;102380.0;;;11.0;87.5
60719;BME280;46567;51.660;5.824;2023-02-19T15:43:03;102390.0;;;11.0;88.0
60719;BME280;46567;51.660;5.824;2023-02-19T15:48:15;102390.0;;;11.0;88.0
60719;BME280;46567;51.660;5.824;2023-02-19T15:53:11;102410.0;;;11.0;88.5
60719;BME280;46567;51.660;5.824;2023-02-19T15:58:13;102410.0;;;11.0;88.5
60719;BME280;46567;51.660;5.824;2023-02-19T16:03:03;102410.0;;;10.9;89.0
60719;BME280;46567;51.660;5.824;2023-02-19T16:08:19;102420.0;;;10.8;89.0
60719;BME280;46567;51.660;5.824;2023-02-19T16:13:04;102430.0;;;10.7;89.5
60719;BME280;46567;51.660;5.824;2023-02-19T16:18:03;102440.0;;;10.6;89.5
60719;BME280;46567;51.660;5.824;2023-02-19T16:23:12;102450.0;;;10.4;89.5
60719;BME280;46567;51.660;5.824;2023-02-19T16:28:10;102480.0;;;10.3;90.0
60719;BME280;46567;51.660;5.824;2023-02-19T16:33:19;102490.0;;;10.1;90.5
60719;BME280;46567;51.660;5.824;2023-02-19T16:38:11;102480.0;;;10.0;91.0
60719;BME280;46567;51.660;5.824;2023-02-19T16:43:38;102500.0;;;9.9;91.0
60719;BME280;46567;51.660;5.824;2023-02-19T16:48:03;102510.0;;;9.8;91.5
60719;BME280;46567;51.660;5.824;2023-02-19T16:53:03;102520.0;;;9.7;91.5
60719;BME280;46567;51.660;5.824;2023-02-19T16:58:03;102510.0;;;9.6;92.0
60719;BME280;46567;51.660;5.824;2023-02-19T17:03:10;102510.0;;;9.5;92.0
60719;BME280;46567;51.660;5.824;2023-02-19T17:08:07;102510.0;;;9.5;92.5
60719;BME280;46567;51.660;5.824;2023-02-19T17:13:03;102520.0;;;9.5;92.5
60719;BME280;46567;51.660;5.824;2023-02-19T17:28:03;102540.0;;;9.5;93.0
60719;BME280;46567;51.660;5.824;2023-02-19T17:33:03;102530.0;;;9.5;93.0
60719;BME280;46567;51.660;5.824;2023-02-19T17:38:03;102540.0;;;9.5;93.0
60719;BME280;46567;51.660;5.824;2023-02-19T17:43:04;102540.0;;;9.5;93.0
60719;BME280;46567;51.660;5.824;2023-02-19T17:48:03;102530.0;;;9.5;93.0
60719;BME280;46567;51.660;5.824;2023-02-19T17:53:03;102540.0;;;9.4;93.5
60719;BME280;46567;51.660;5.824;2023-02-19T17:58:03;102540.0;;;9.4;93.5
60719;BME280;46567;51.660;5.824;2023-02-19T18:03:04;102540.0;;;9.4;93.0
60719;BME280;46567;51.660;5.824;2023-02-19T18:08:03;102560.0;;;9.3;93.0
60719;BME280;46567;51.660;5.824;2023-02-19T18:13:03;102550.0;;;9.3;93.0
60719;BME280;46567;51.660;5.824;2023-02-19T18:18:03;102560.0;;;9.3;93.0
60719;BME280;46567;51.660;5.824;2023-02-19T18:23:03;102580.0;;;9.2;93.0
60719;BME280;46567;51.660;5.824;2023-02-19T18:28:03;102580.0;;;9.2;93.0
60719;BME280;46567;51.660;5.824;2023-02-19T18:33:03;102580.0;;;9.2;93.0
60719;BME280;46567;51.660;5.824;2023-02-19T18:38:03;102590.0;;;9.2;93.5
60719;BME280;46567;51.660;5.824;2023-02-19T18:43:04;102580.0;;;9.2;93.0
60719;BME280;46567;51.660;5.824;2023-02-19T18:48:05;102570.0;;;9.2;93.0
60719;BME280;46567;51.660;5.824;2023-02-19T18:53:03;102560.0;;;9.1;92.5
60719;BME280;46567;51.660;5.824;2023-02-19T18:58:03;102560.0;;;9.2;92.5
60719;BME280;46567;51.660;5.824;2023-02-19T19:03:03;102570.0;;;9.2;92.5
60719;BME280;46567;51.660;5.824;2023-02-19T19:08:03;102570.0;;;9.2;92.5
60719;BME280;46567;51.660;5.824;2023-02-19T19:13:03;102580.0;;;9.2;92.5
60719;BME280;46567;51.660;5.824;2023-02-19T19:18:03;102570.0;;;9.2;92.5
60719;BME280;46567;51.660;5.824;2023-02-19T19:23:03;102580.0;;;9.2;92.0
60719;BME280;46567;51.660;5.824;2023-02-19T19:28:03;102590.0;;;9.2;91.5
60719;BME280;46567;51.660;5.824;2023-02-19T19:33:03;102590.0;;;9.1;91.5
60719;BME280;46567;51.660;5.824;2023-02-19T19:38:03;102600.0;;;9.0;91.5
60719;BME280;46567;51.660;5.824;2023-02-19T19:43:03;102600.0;;;8.9;91.0
60719;BME280;46567;51.660;5.824;2023-02-19T19:48:04;102590.0;;;8.7;91.0
60719;BME280;46567;51.660;5.824;2023-02-19T19:53:03;102590.0;;;8.6;91.0
60719;BME280;46567;51.660;5.824;2023-02-19T19:58:03;102610.0;;;8.5;91.0
60719;BME280;46567;51.660;5.824;2023-02-19T20:03:03;102610.0;;;8.4;91.0
60719;BME280;46567;51.660;5.824;2023-02-19T20:08:03;102610.0;;;8.4;91.0
60719;BME280;46567;51.660;5.824;2023-02-19T20:13:03;102610.0;;;8.3;91.0
60719;BME280;46567;51.660;5.824;2023-02-19T20:18:03;102610.0;;;8.2;91.5
60719;BME280;46567;51.660;5.824;2023-02-19T20:23:03;102620.0;;;8.2;91.5
60719;BME280;46567;51.660;5.824;2023-02-19T20:28:03;102620.0;;;8.1;91.5
60719;BME280;46567;51.660;5.824;2023-02-19T20:33:03;102620.0;;;8.0;91.5
60719;BME280;46567;51.660;5.824;2023-02-19T20:38:03;102630.0;;;7.9;92.0
60719;BME280;46567;51.660;5.824;2023-02-19T20:43:03;102620.0;;;7.8;92.0
60719;BME280;46567;51.660;5.824;2023-02-19T20:48:03;102600.0;;;7.8;92.0
60719;BME280;46567;51.660;5.824;2023-02-19T20:53:03;102600.0;;;7.8;92.0
60719;BME280;46567;51.660;5.824;2023-02-19T20:58:03;102600.0;;;7.7;92.0
60719;BME280;46567;51.660;5.824;2023-02-19T21:03:03;102600.0;;;7.6;92.0
60719;BME280;46567;51.660;5.824;2023-02-19T21:08:03;102600.0;;;7.6;92.0
60719;BME280;46567;51.660;5.824;2023-02-19T21:13:03;102610.0;;;7.5;92.0
60719;BME280;46567;51.660;5.824;2023-02-19T21:18:03;102600.0;;;7.5;92.5
60719;BME280;46567;51.660;5.824;2023-02-19T21:23:03;102600.0;;;7.5;92.5
60719;BME280;46567;51.660;5.824;2023-02-19T21:28:03;102600.0;;;7.4;92.0
60719;BME280;46567;51.660;5.824;2023-02-19T21:33:03;102600.0;;;7.4;92.0
60719;BME280;46567;51.660;5.824;2023-02-19T21:43:03;102580.0;;;7.3;92.0
60719;BME280;46567;51.660;5.824;2023-02-19T21:48:04;102580.0;;;7.3;92.0
60719;BME280;46567;51.660;5.824;2023-02-19T21:53:03;102580.0;;;7.3;92.0
60719;BME280;46567;51.660;5.824;2023-02-19T21:58:03;102590.0;;;7.2;92.0
60719;BME280;46567;51.660;5.824;2023-02-19T22:03:03;102580.0;;;7.2;92.0
60719;BME280;46567;51.660;5.824;2023-02-19T22:08:03;102570.0;;;7.1;92.0
60719;BME280;46567;51.660;5.824;2023-02-19T22:13:03;102580.0;;;7.1;92.5
60719;BME280;46567;51.660;5.824;2023-02-19T22:18:04;102600.0;;;7.0;92.5
60719;BME280;46567;51.660;5.824;2023-02-19T22:23:04;102580.0;;;7.0;92.5
60719;BME280;46567;51.660;5.824;2023-02-19T22:28:03;102590.0;;;7.0;92.5
60719;BME280;46567;51.660;5.824;2023-02-19T22:33:03;102590.0;;;6.9;92.5
60719;BME280;46567;51.660;5.824;2023-02-19T22:38:03;102590.0;;;6.9;92.5
60719;BME280;46567;51.660;5.824;2023-02-19T22:43:03;102570.0;;;6.9;92.5
60719;BME280;46567;51.660;5.824;2023-02-19T22:48:03;102580.0;;;6.9;93.0
60719;BME280;46567;51.660;5.824;2023-02-19T22:53:03;102590.0;;;6.8;93.0
60719;BME280;46567;51.660;5.824;2023-02-19T22:58:03;102580.0;;;6.8;93.0
60719;BME280;46567;51.660;5.824;2023-02-19T23:03:03;102560.0;;;6.8;93.0
60719;BME280;46567;51.660;5.824;2023-02-19T23:08:03;102560.0;;;6.8;93.0
60719;BME280;46567;51.660;5.824;2023-02-19T23:13:03;102550.0;;;6.8;93.5
60719;BME280;46567;51.660;5.824;2023-02-19T23:18:03;102550.0;;;6.8;93.5
60719;BME280;46567;51.660;5.824;2023-02-19T23:23:03;102540.0;;;6.8;93.5
60719;BME280;46567;51.660;5.824;2023-02-19T23:28:04;102540.0;;;6.8;93.5
60719;BME280;46567;51.660;5.824;2023-02-19T23:33:03;102530.0;;;6.8;93.5
60719;BME280;46567;51.660;5.824;2023-02-19T23:38:03;102520.0;;;6.8;93.5
60719;BME280;46567;51.660;5.824;2023-02-19T23:43:03;102510.0;;;6.7;93.5
60719;BME280;46567;51.660;5.824;2023-02-19T23:53:03;102520.0;;;6.7;93.5
60719;BME280;46567;51.660;5.824;2023-02-19T23:58:03;102510.0;;;6.7;94.0
